sensor_id;sensor_type;location;lat;lon;timestamp;temperature;humidity
4411;DHT22;2218;51.408;7.208;2023-04-03T00:01:46;17.80;33.40
4411;DHT22;2218;51.408;7.208;2023-04-03T00:04:15;17.80;33.30
4411;DHT22;2218;51.408;7.208;2023-04-03T00:06:42;17.80;33.40
4411;DHT22;2218;51.408;7.208;2023-04-03T00:09:08;17.80;33.30
4411;DHT22;2218;51.408;7.208;2023-04-03T00:11:35;17.80;33.30
4411;DHT22;2218;51.408;7.208;2023-04-03T00:14:02;17.80;33.30
4411;DHT22;2218;51.408;7.208;2023-04-03T00:16:29;17.80;33.20
4411;DHT22;2218;51.408;7.208;2023-04-03T00:18:56;17.80;33.20
4411;DHT22;2218;51.408;7.208;2023-04-03T00:21:24;17.80;33.20
4411;DHT22;2218;51.408;7.208;2023-04-03T00:23:51;17.80;33.20
4411;DHT22;2218;51.408;7.208;2023-04-03T00:26:18;17.80;33.30
4411;DHT22;2218;51.408;7.208;2023-04-03T00:28:46;17.80;33.30
4411;DHT22;2218;51.408;7.208;2023-04-03T00:31:14;17.80;33.20
4411;DHT22;2218;51.408;7.208;2023-04-03T00:33:42;17.80;33.00
4411;DHT22;2218;51.408;7.208;2023-04-03T00:36:10;17.90;33.00
4411;DHT22;2218;51.408;7.208;2023-04-03T00:38:40;17.90;33.00
4411;DHT22;2218;51.408;7.208;2023-04-03T00:41:07;17.90;32.80
4411;DHT22;2218;51.408;7.208;2023-04-03T00:43:34;17.90;32.70
4411;DHT22;2218;51.408;7.208;2023-04-03T00:46:01;17.90;32.60
4411;DHT22;2218;51.408;7.208;2023-04-03T00:48:31;17.90;32.60
4411;DHT22;2218;51.408;7.208;2023-04-03T00:51:02;18.00;32.50
4411;DHT22;2218;51.408;7.208;2023-04-03T00:53:37;18.00;32.60
4411;DHT22;2218;51.408;7.208;2023-04-03T00:56:10;18.00;32.50
4411;DHT22;2218;51.408;7.208;2023-04-03T00:58:43;18.00;32.50
4411;DHT22;2218;51.408;7.208;2023-04-03T01:01:19;18.00;32.40
4411;DHT22;2218;51.408;7.208;2023-04-03T01:03:49;18.00;32.30
4411;DHT22;2218;51.408;7.208;2023-04-03T01:06:20;18.00;32.30
4411;DHT22;2218;51.408;7.208;2023-04-03T01:08:51;18.00;32.30
4411;DHT22;2218;51.408;7.208;2023-04-03T01:11:19;18.00;32.20
4411;DHT22;2218;51.408;7.208;2023-04-03T01:13:47;18.00;32.20
4411;DHT22;2218;51.408;7.208;2023-04-03T01:16:15;18.00;32.10
4411;DHT22;2218;51.408;7.208;2023-04-03T01:18:42;18.00;32.10
4411;DHT22;2218;51.408;7.208;2023-04-03T01:24:36;18.10;32.10
4411;DHT22;2218;51.408;7.208;2023-04-03T01:27:09;18.10;32.10
4411;DHT22;2218;51.408;7.208;2023-04-03T01:29:37;18.10;32.00
4411;DHT22;2218;51.408;7.208;2023-04-03T01:32:07;18.10;32.00
4411;DHT22;2218;51.408;7.208;2023-04-03T01:34:35;18.10;31.90
4411;DHT22;2218;51.408;7.208;2023-04-03T01:37:02;18.10;32.00
4411;DHT22;2218;51.408;7.208;2023-04-03T01:39:29;18.10;31.90
4411;DHT22;2218;51.408;7.208;2023-04-03T01:41:56;18.10;31.90
4411;DHT22;2218;51.408;7.208;2023-04-03T01:44:29;18.10;31.90
4411;DHT22;2218;51.408;7.208;2023-04-03T01:46:56;18.10;31.90
4411;DHT22;2218;51.408;7.208;2023-04-03T01:49:27;18.10;31.90
4411;DHT22;2218;51.408;7.208;2023-04-03T01:51:54;18.10;31.80
4411;DHT22;2218;51.408;7.208;2023-04-03T01:54:21;18.10;31.80
4411;DHT22;2218;51.408;7.208;2023-04-03T01:56:48;18.10;31.80
4411;DHT22;2218;51.408;7.208;2023-04-03T01:59:17;18.10;31.80
4411;DHT22;2218;51.408;7.208;2023-04-03T02:01:45;18.10;31.80
4411;DHT22;2218;51.408;7.208;2023-04-03T02:04:12;18.10;31.80
4411;DHT22;2218;51.408;7.208;2023-04-03T02:06:41;18.10;31.70
4411;DHT22;2218;51.408;7.208;2023-04-03T02:09:08;18.10;31.70
4411;DHT22;2218;51.408;7.208;2023-04-03T02:11:35;18.10;31.60
4411;DHT22;2218;51.408;7.208;2023-04-03T02:14:02;18.10;31.60
4411;DHT22;2218;51.408;7.208;2023-04-03T02:16:30;18.10;31.70
4411;DHT22;2218;51.408;7.208;2023-04-03T02:18:56;18.10;31.60
4411;DHT22;2218;51.408;7.208;2023-04-03T02:21:24;18.10;31.60
4411;DHT22;2218;51.408;7.208;2023-04-03T02:23:52;18.10;31.60
4411;DHT22;2218;51.408;7.208;2023-04-03T02:26:19;18.20;31.60
4411;DHT22;2218;51.408;7.208;2023-04-03T02:28:46;18.20;31.60
4411;DHT22;2218;51.408;7.208;2023-04-03T02:31:14;18.20;32.10
4411;DHT22;2218;51.408;7.208;2023-04-03T02:33:43;18.20;31.50
4411;DHT22;2218;51.408;7.208;2023-04-03T02:36:12;18.20;31.50
4411;DHT22;2218;51.408;7.208;2023-04-03T02:38:42;18.20;31.50
4411;DHT22;2218;51.408;7.208;2023-04-03T02:41:12;18.20;31.40
4411;DHT22;2218;51.408;7.208;2023-04-03T02:43:40;18.20;31.40
4411;DHT22;2218;51.408;7.208;2023-04-03T02:46:07;18.20;31.40
4411;DHT22;2218;51.408;7.208;2023-04-03T02:48:34;18.20;31.30
4411;DHT22;2218;51.408;7.208;2023-04-03T02:51:01;18.20;31.30
4411;DHT22;2218;51.408;7.208;2023-04-03T02:53:28;18.20;31.30
4411;DHT22;2218;51.408;7.208;2023-04-03T02:55:56;18.20;31.20
4411;DHT22;2218;51.408;7.208;2023-04-03T02:58:24;18.20;31.20
4411;DHT22;2218;51.408;7.208;2023-04-03T03:00:54;18.20;31.30
4411;DHT22;2218;51.408;7.208;2023-04-03T03:03:20;18.20;31.20
4411;DHT22;2218;51.408;7.208;2023-04-03T03:05:48;18.20;31.20
4411;DHT22;2218;51.408;7.208;2023-04-03T03:08:15;18.20;31.20
4411;DHT22;2218;51.408;7.208;2023-04-03T03:10:45;18.20;31.20
4411;DHT22;2218;51.408;7.208;2023-04-03T03:13:12;18.20;31.10
4411;DHT22;2218;51.408;7.208;2023-04-03T03:15:41;18.20;31.10
4411;DHT22;2218;51.408;7.208;2023-04-03T03:18:08;18.20;31.10
4411;DHT22;2218;51.408;7.208;2023-04-03T03:20:35;18.20;31.10
4411;DHT22;2218;51.408;7.208;2023-04-03T03:23:02;18.20;31.10
4411;DHT22;2218;51.408;7.208;2023-04-03T03:25:29;18.20;31.10
4411;DHT22;2218;51.408;7.208;2023-04-03T03:27:56;18.20;31.00
4411;DHT22;2218;51.408;7.208;2023-04-03T03:30:23;18.20;31.00
4411;DHT22;2218;51.408;7.208;2023-04-03T03:32:51;18.20;30.90
4411;DHT22;2218;51.408;7.208;2023-04-03T03:35:19;18.20;30.90
4411;DHT22;2218;51.408;7.208;2023-04-03T03:37:47;18.20;30.80
4411;DHT22;2218;51.408;7.208;2023-04-03T03:40:14;18.20;30.80
4411;DHT22;2218;51.408;7.208;2023-04-03T03:42:41;18.20;30.80
4411;DHT22;2218;51.408;7.208;2023-04-03T03:45:09;18.20;30.80
4411;DHT22;2218;51.408;7.208;2023-04-03T03:47:37;18.20;30.70
4411;DHT22;2218;51.408;7.208;2023-04-03T03:50:06;18.20;30.70
4411;DHT22;2218;51.408;7.208;2023-04-03T03:52:35;18.20;30.70
4411;DHT22;2218;51.408;7.208;2023-04-03T03:55:02;18.20;30.60
4411;DHT22;2218;51.408;7.208;2023-04-03T03:57:29;18.20;30.70
4411;DHT22;2218;51.408;7.208;2023-04-03T03:59:57;18.20;30.60
4411;DHT22;2218;51.408;7.208;2023-04-03T04:02:24;18.20;30.60
4411;DHT22;2218;51.408;7.208;2023-04-03T04:04:52;18.20;30.60
4411;DHT22;2218;51.408;7.208;2023-04-03T04:07:21;18.20;30.60
4411;DHT22;2218;51.408;7.208;2023-04-03T04:09:48;18.20;30.50
4411;DHT22;2218;51.408;7.208;2023-04-03T04:12:15;18.20;30.50
4411;DHT22;2218;51.408;7.208;2023-04-03T04:14:42;18.20;30.60
4411;DHT22;2218;51.408;7.208;2023-04-03T04:17:12;18.20;30.70
4411;DHT22;2218;51.408;7.208;2023-04-03T04:19:39;18.20;30.60
4411;DHT22;2218;51.408;7.208;2023-04-03T04:22:06;18.20;30.50
4411;DHT22;2218;51.408;7.208;2023-04-03T04:24:34;18.30;30.50
4411;DHT22;2218;51.408;7.208;2023-04-03T04:27:02;18.30;30.40
4411;DHT22;2218;51.408;7.208;2023-04-03T04:29:32;18.30;30.30
4411;DHT22;2218;51.408;7.208;2023-04-03T04:32:01;18.30;30.20
4411;DHT22;2218;51.408;7.208;2023-04-03T04:34:29;18.40;30.10
4411;DHT22;2218;51.408;7.208;2023-04-03T04:36:56;18.40;30.30
4411;DHT22;2218;51.408;7.208;2023-04-03T04:39:25;18.40;30.20
4411;DHT22;2218;51.408;7.208;2023-04-03T04:41:56;18.40;30.10
4411;DHT22;2218;51.408;7.208;2023-04-03T04:44:25;18.40;30.10
4411;DHT22;2218;51.408;7.208;2023-04-03T04:46:52;18.40;30.10
4411;DHT22;2218;51.408;7.208;2023-04-03T04:49:20;18.40;30.00
4411;DHT22;2218;51.408;7.208;2023-04-03T04:51:47;18.50;30.00
4411;DHT22;2218;51.408;7.208;2023-04-03T04:54:17;18.50;30.10
4411;DHT22;2218;51.408;7.208;2023-04-03T04:56:47;18.40;30.00
4411;DHT22;2218;51.408;7.208;2023-04-03T04:59:15;18.40;30.00
4411;DHT22;2218;51.408;7.208;2023-04-03T05:01:42;18.50;30.10
4411;DHT22;2218;51.408;7.208;2023-04-03T05:04:14;18.40;30.00
4411;DHT22;2218;51.408;7.208;2023-04-03T05:06:42;18.40;30.00
4411;DHT22;2218;51.408;7.208;2023-04-03T05:09:14;18.40;30.10
4411;DHT22;2218;51.408;7.208;2023-04-03T05:11:43;18.40;30.00
4411;DHT22;2218;51.408;7.208;2023-04-03T05:14:12;18.40;30.00
4411;DHT22;2218;51.408;7.208;2023-04-03T05:16:40;18.40;30.00
4411;DHT22;2218;51.408;7.208;2023-04-03T05:19:08;18.40;30.00
4411;DHT22;2218;51.408;7.208;2023-04-03T05:21:36;18.40;30.00
4411;DHT22;2218;51.408;7.208;2023-04-03T05:24:08;18.40;30.00
4411;DHT22;2218;51.408;7.208;2023-04-03T05:26:37;18.40;30.00
4411;DHT22;2218;51.408;7.208;2023-04-03T05:29:05;18.40;30.00
4411;DHT22;2218;51.408;7.208;2023-04-03T05:31:33;18.40;30.00
4411;DHT22;2218;51.408;7.208;2023-04-03T05:34:01;18.40;30.00
4411;DHT22;2218;51.408;7.208;2023-04-03T05:36:31;18.40;30.00
4411;DHT22;2218;51.408;7.208;2023-04-03T05:39:03;18.40;30.10
4411;DHT22;2218;51.408;7.208;2023-04-03T05:41:30;18.40;30.20
4411;DHT22;2218;51.408;7.208;2023-04-03T05:43:57;18.40;30.20
4411;DHT22;2218;51.408;7.208;2023-04-03T05:46:25;18.40;30.30
4411;DHT22;2218;51.408;7.208;2023-04-03T05:48:55;18.40;30.30
4411;DHT22;2218;51.408;7.208;2023-04-03T05:51:31;18.40;30.40
4411;DHT22;2218;51.408;7.208;2023-04-03T05:54:19;18.40;30.50
4411;DHT22;2218;51.408;7.208;2023-04-03T05:56:49;18.40;30.50
4411;DHT22;2218;51.408;7.208;2023-04-03T05:59:17;18.40;30.50
4411;DHT22;2218;51.408;7.208;2023-04-03T06:01:44;18.40;30.50
4411;DHT22;2218;51.408;7.208;2023-04-03T06:04:12;18.50;30.50
4411;DHT22;2218;51.408;7.208;2023-04-03T06:06:46;18.60;30.40
4411;DHT22;2218;51.408;7.208;2023-04-03T06:09:15;18.70;30.20
4411;DHT22;2218;51.408;7.208;2023-04-03T06:11:43;18.90;30.30
4411;DHT22;2218;51.408;7.208;2023-04-03T06:14:11;18.90;30.20
4411;DHT22;2218;51.408;7.208;2023-04-03T06:16:39;19.00;30.20
4411;DHT22;2218;51.408;7.208;2023-04-03T06:19:07;19.10;30.10
4411;DHT22;2218;51.408;7.208;2023-04-03T06:21:37;19.10;30.20
4411;DHT22;2218;51.408;7.208;2023-04-03T06:24:07;19.20;30.20
4411;DHT22;2218;51.408;7.208;2023-04-03T06:26:34;19.20;30.20
4411;DHT22;2218;51.408;7.208;2023-04-03T06:29:01;19.30;30.20
4411;DHT22;2218;51.408;7.208;2023-04-03T06:31:28;19.30;30.20
4411;DHT22;2218;51.408;7.208;2023-04-03T06:33:55;19.30;30.20
4411;DHT22;2218;51.408;7.208;2023-04-03T06:36:22;19.40;30.80
4411;DHT22;2218;51.408;7.208;2023-04-03T06:38:49;19.50;30.40
4411;DHT22;2218;51.408;7.208;2023-04-03T06:41:18;19.40;30.40
4411;DHT22;2218;51.408;7.208;2023-04-03T06:43:45;19.50;30.50
4411;DHT22;2218;51.408;7.208;2023-04-03T06:46:14;19.50;30.60
4411;DHT22;2218;51.408;7.208;2023-04-03T06:48:42;19.50;30.70
4411;DHT22;2218;51.408;7.208;2023-04-03T06:51:21;19.50;30.70
4411;DHT22;2218;51.408;7.208;2023-04-03T06:53:51;19.60;30.90
4411;DHT22;2218;51.408;7.208;2023-04-03T06:56:21;19.60;31.00
4411;DHT22;2218;51.408;7.208;2023-04-03T06:58:48;19.60;31.00
4411;DHT22;2218;51.408;7.208;2023-04-03T07:01:17;19.60;31.10
4411;DHT22;2218;51.408;7.208;2023-04-03T07:03:45;19.60;31.20
4411;DHT22;2218;51.408;7.208;2023-04-03T07:06:14;19.60;31.20
4411;DHT22;2218;51.408;7.208;2023-04-03T07:08:42;19.60;31.30
4411;DHT22;2218;51.408;7.208;2023-04-03T07:11:10;19.60;31.40
4411;DHT22;2218;51.408;7.208;2023-04-03T07:13:40;19.60;31.40
4411;DHT22;2218;51.408;7.208;2023-04-03T07:16:07;19.60;31.40
4411;DHT22;2218;51.408;7.208;2023-04-03T07:18:35;19.60;31.50
4411;DHT22;2218;51.408;7.208;2023-04-03T07:21:03;19.60;31.50
4411;DHT22;2218;51.408;7.208;2023-04-03T07:23:31;19.50;31.40
4411;DHT22;2218;51.408;7.208;2023-04-03T07:25:58;19.50;31.50
4411;DHT22;2218;51.408;7.208;2023-04-03T07:28:25;19.50;31.50
4411;DHT22;2218;51.408;7.208;2023-04-03T07:30:58;19.50;31.60
4411;DHT22;2218;51.408;7.208;2023-04-03T07:33:27;19.50;31.50
4411;DHT22;2218;51.408;7.208;2023-04-03T07:35:54;19.50;31.60
4411;DHT22;2218;51.408;7.208;2023-04-03T07:38:21;19.50;31.60
4411;DHT22;2218;51.408;7.208;2023-04-03T07:40:49;19.50;31.70
4411;DHT22;2218;51.408;7.208;2023-04-03T07:43:19;19.50;31.60
4411;DHT22;2218;51.408;7.208;2023-04-03T07:45:48;19.40;31.60
4411;DHT22;2218;51.408;7.208;2023-04-03T07:48:19;19.50;31.40
4411;DHT22;2218;51.408;7.208;2023-04-03T07:50:47;19.40;31.10
4411;DHT22;2218;51.408;7.208;2023-04-03T07:53:14;19.40;31.30
4411;DHT22;2218;51.408;7.208;2023-04-03T07:55:42;19.40;31.30
4411;DHT22;2218;51.408;7.208;2023-04-03T07:58:13;19.40;31.30
4411;DHT22;2218;51.408;7.208;2023-04-03T08:00:41;19.40;31.30
4411;DHT22;2218;51.408;7.208;2023-04-03T08:03:10;19.40;31.40
4411;DHT22;2218;51.408;7.208;2023-04-03T08:05:39;19.40;31.30
4411;DHT22;2218;51.408;7.208;2023-04-03T08:08:08;19.40;31.20
4411;DHT22;2218;51.408;7.208;2023-04-03T08:10:37;19.40;31.10
4411;DHT22;2218;51.408;7.208;2023-04-03T08:13:07;19.40;31.10
4411;DHT22;2218;51.408;7.208;2023-04-03T08:15:36;19.40;31.00
4411;DHT22;2218;51.408;7.208;2023-04-03T08:18:03;19.40;31.10
4411;DHT22;2218;51.408;7.208;2023-04-03T08:20:30;19.40;31.30
4411;DHT22;2218;51.408;7.208;2023-04-03T08:22:58;19.40;31.40
4411;DHT22;2218;51.408;7.208;2023-04-03T08:25:25;19.40;31.50
4411;DHT22;2218;51.408;7.208;2023-04-03T08:27:54;19.30;31.50
4411;DHT22;2218;51.408;7.208;2023-04-03T08:30:21;19.40;31.70
4411;DHT22;2218;51.408;7.208;2023-04-03T08:32:48;19.40;31.60
4411;DHT22;2218;51.408;7.208;2023-04-03T08:35:15;19.30;31.60
4411;DHT22;2218;51.408;7.208;2023-04-03T08:37:42;19.30;31.70
4411;DHT22;2218;51.408;7.208;2023-04-03T08:40:15;19.30;31.70
4411;DHT22;2218;51.408;7.208;2023-04-03T08:42:51;19.30;31.70
4411;DHT22;2218;51.408;7.208;2023-04-03T08:45:37;19.30;31.70
4411;DHT22;2218;51.408;7.208;2023-04-03T08:48:14;19.30;31.70
4411;DHT22;2218;51.408;7.208;2023-04-03T08:50:50;19.30;32.00
4411;DHT22;2218;51.408;7.208;2023-04-03T08:53:23;19.30;32.10
4411;DHT22;2218;51.408;7.208;2023-04-03T08:55:55;19.30;32.20
4411;DHT22;2218;51.408;7.208;2023-04-03T08:58:25;19.30;31.90
4411;DHT22;2218;51.408;7.208;2023-04-03T09:00:57;19.20;31.80
4411;DHT22;2218;51.408;7.208;2023-04-03T09:03:29;19.20;32.00
4411;DHT22;2218;51.408;7.208;2023-04-03T09:06:01;19.20;31.70
4411;DHT22;2218;51.408;7.208;2023-04-03T09:08:33;19.20;31.50
4411;DHT22;2218;51.408;7.208;2023-04-03T09:11:16;19.20;31.70
4411;DHT22;2218;51.408;7.208;2023-04-03T09:13:54;19.20;31.70
4411;DHT22;2218;51.408;7.208;2023-04-03T09:16:35;19.20;31.60
4411;DHT22;2218;51.408;7.208;2023-04-03T09:19:16;19.20;31.50
4411;DHT22;2218;51.408;7.208;2023-04-03T09:21:49;19.20;31.70
4411;DHT22;2218;51.408;7.208;2023-04-03T09:24:17;19.20;31.60
4411;DHT22;2218;51.408;7.208;2023-04-03T09:26:51;19.20;31.70
4411;DHT22;2218;51.408;7.208;2023-04-03T09:29:25;19.20;31.90
4411;DHT22;2218;51.408;7.208;2023-04-03T09:31:56;19.20;31.70
4411;DHT22;2218;51.408;7.208;2023-04-03T09:34:29;19.30;31.90
4411;DHT22;2218;51.408;7.208;2023-04-03T09:37:00;19.20;31.90
4411;DHT22;2218;51.408;7.208;2023-04-03T09:39:32;19.20;31.90
4411;DHT22;2218;51.408;7.208;2023-04-03T09:42:20;19.30;31.80
4411;DHT22;2218;51.408;7.208;2023-04-03T09:44:56;19.30;31.90
4411;DHT22;2218;51.408;7.208;2023-04-03T09:47:26;19.20;31.80
4411;DHT22;2218;51.408;7.208;2023-04-03T09:50:15;19.20;31.70
4411;DHT22;2218;51.408;7.208;2023-04-03T09:52:47;19.20;31.70
4411;DHT22;2218;51.408;7.208;2023-04-03T09:55:18;19.20;31.60
4411;DHT22;2218;51.408;7.208;2023-04-03T09:57:53;19.20;31.60
4411;DHT22;2218;51.408;7.208;2023-04-03T10:00:23;19.20;31.40
4411;DHT22;2218;51.408;7.208;2023-04-03T10:02:54;19.20;30.90
4411;DHT22;2218;51.408;7.208;2023-04-03T10:05:32;19.20;31.40
4411;DHT22;2218;51.408;7.208;2023-04-03T10:08:11;19.20;31.50
4411;DHT22;2218;51.408;7.208;2023-04-03T10:11:07;19.20;31.60
4411;DHT22;2218;51.408;7.208;2023-04-03T10:13:54;19.20;31.70
4411;DHT22;2218;51.408;7.208;2023-04-03T10:16:27;19.10;32.20
4411;DHT22;2218;51.408;7.208;2023-04-03T10:19:29;19.10;31.70
4411;DHT22;2218;51.408;7.208;2023-04-03T10:22:04;19.10;31.80
4411;DHT22;2218;51.408;7.208;2023-04-03T10:24:48;19.10;31.80
4411;DHT22;2218;51.408;7.208;2023-04-03T10:27:30;19.10;31.90
4411;DHT22;2218;51.408;7.208;2023-04-03T10:30:29;19.10;31.90
4411;DHT22;2218;51.408;7.208;2023-04-03T10:33:11;19.00;31.80
4411;DHT22;2218;51.408;7.208;2023-04-03T10:35:57;19.10;31.90
4411;DHT22;2218;51.408;7.208;2023-04-03T10:38:43;19.10;31.90
4411;DHT22;2218;51.408;7.208;2023-04-03T10:41:22;19.10;32.10
4411;DHT22;2218;51.408;7.208;2023-04-03T10:44:04;19.10;32.00
4411;DHT22;2218;51.408;7.208;2023-04-03T10:46:44;19.00;32.00
4411;DHT22;2218;51.408;7.208;2023-04-03T10:49:28;19.10;32.00
4411;DHT22;2218;51.408;7.208;2023-04-03T10:52:14;19.10;32.10
4411;DHT22;2218;51.408;7.208;2023-04-03T10:54:53;19.10;32.10
4411;DHT22;2218;51.408;7.208;2023-04-03T10:57:30;19.10;32.10
4411;DHT22;2218;51.408;7.208;2023-04-03T11:00:00;19.10;32.20
4411;DHT22;2218;51.408;7.208;2023-04-03T11:02:33;19.10;32.20
4411;DHT22;2218;51.408;7.208;2023-04-03T11:05:06;19.10;32.20
4411;DHT22;2218;51.408;7.208;2023-04-03T11:07:43;19.10;32.30
4411;DHT22;2218;51.408;7.208;2023-04-03T11:10:17;19.10;32.30
4411;DHT22;2218;51.408;7.208;2023-04-03T11:12:53;19.10;32.10
4411;DHT22;2218;51.408;7.208;2023-04-03T11:15:30;19.10;32.20
4411;DHT22;2218;51.408;7.208;2023-04-03T11:18:04;19.00;32.20
4411;DHT22;2218;51.408;7.208;2023-04-03T11:20:37;19.10;32.30
4411;DHT22;2218;51.408;7.208;2023-04-03T11:23:14;19.10;32.30
4411;DHT22;2218;51.408;7.208;2023-04-03T11:25:51;19.00;32.10
4411;DHT22;2218;51.408;7.208;2023-04-03T11:28:20;19.10;32.30
4411;DHT22;2218;51.408;7.208;2023-04-03T11:30:50;19.10;32.30
4411;DHT22;2218;51.408;7.208;2023-04-03T11:33:40;19.10;32.30
4411;DHT22;2218;51.408;7.208;2023-04-03T11:36:20;19.00;32.20
4411;DHT22;2218;51.408;7.208;2023-04-03T11:38:52;19.00;32.20
4411;DHT22;2218;51.408;7.208;2023-04-03T11:41:26;19.00;32.20
4411;DHT22;2218;51.408;7.208;2023-04-03T11:43:58;19.00;32.20
4411;DHT22;2218;51.408;7.208;2023-04-03T11:46:52;19.00;32.20
4411;DHT22;2218;51.408;7.208;2023-04-03T11:49:54;19.00;32.30
4411;DHT22;2218;51.408;7.208;2023-04-03T11:52:55;19.00;32.30
4411;DHT22;2218;51.408;7.208;2023-04-03T11:58:33;19.00;32.20
4411;DHT22;2218;51.408;7.208;2023-04-03T12:01:06;19.00;32.30
4411;DHT22;2218;51.408;7.208;2023-04-03T12:10:18;19.00;32.40
4411;DHT22;2218;51.408;7.208;2023-04-03T12:12:59;19.10;32.50
4411;DHT22;2218;51.408;7.208;2023-04-03T12:15:51;19.00;32.30
4411;DHT22;2218;51.408;7.208;2023-04-03T12:18:54;19.10;32.40
4411;DHT22;2218;51.408;7.208;2023-04-03T12:22:04;19.10;32.40
4411;DHT22;2218;51.408;7.208;2023-04-03T12:24:38;19.10;32.20
4411;DHT22;2218;51.408;7.208;2023-04-03T12:27:20;19.10;32.10
4411;DHT22;2218;51.408;7.208;2023-04-03T12:29:54;19.00;31.90
4411;DHT22;2218;51.408;7.208;2023-04-03T12:32:43;19.00;31.60
4411;DHT22;2218;51.408;7.208;2023-04-03T12:35:23;19.10;31.80
4411;DHT22;2218;51.408;7.208;2023-04-03T12:38:17;19.10;31.40
4411;DHT22;2218;51.408;7.208;2023-04-03T12:41:18;19.00;31.40
4411;DHT22;2218;51.408;7.208;2023-04-03T12:44:04;19.10;31.40
4411;DHT22;2218;51.408;7.208;2023-04-03T12:46:45;19.10;31.50
4411;DHT22;2218;51.408;7.208;2023-04-03T12:49:26;19.10;31.50
4411;DHT22;2218;51.408;7.208;2023-04-03T12:52:05;19.10;31.60
4411;DHT22;2218;51.408;7.208;2023-04-03T12:54:41;19.10;31.30
4411;DHT22;2218;51.408;7.208;2023-04-03T12:57:18;19.10;31.40
4411;DHT22;2218;51.408;7.208;2023-04-03T12:59:47;19.10;31.30
4411;DHT22;2218;51.408;7.208;2023-04-03T13:02:22;19.10;31.50
4411;DHT22;2218;51.408;7.208;2023-04-03T13:04:51;19.10;31.50
4411;DHT22;2218;51.408;7.208;2023-04-03T13:07:24;19.10;31.50
4411;DHT22;2218;51.408;7.208;2023-04-03T13:09:59;19.10;31.30
4411;DHT22;2218;51.408;7.208;2023-04-03T13:12:29;19.10;31.10
4411;DHT22;2218;51.408;7.208;2023-04-03T13:14:58;19.10;30.90
4411;DHT22;2218;51.408;7.208;2023-04-03T13:17:30;19.10;31.00
4411;DHT22;2218;51.408;7.208;2023-04-03T13:20:19;19.10;30.90
4411;DHT22;2218;51.408;7.208;2023-04-03T13:22:52;19.10;31.00
4411;DHT22;2218;51.408;7.208;2023-04-03T13:25:25;19.10;31.20
4411;DHT22;2218;51.408;7.208;2023-04-03T13:27:55;19.10;30.40
4411;DHT22;2218;51.408;7.208;2023-04-03T13:30:27;19.10;30.80
4411;DHT22;2218;51.408;7.208;2023-04-03T13:32:58;19.10;30.50
4411;DHT22;2218;51.408;7.208;2023-04-03T13:35:32;19.10;30.80
4411;DHT22;2218;51.408;7.208;2023-04-03T13:38:06;19.10;30.50
4411;DHT22;2218;51.408;7.208;2023-04-03T13:40:48;19.10;30.80
4411;DHT22;2218;51.408;7.208;2023-04-03T13:43:19;19.10;30.20
4411;DHT22;2218;51.408;7.208;2023-04-03T13:45:58;19.10;30.30
4411;DHT22;2218;51.408;7.208;2023-04-03T13:48:36;19.20;30.70
4411;DHT22;2218;51.408;7.208;2023-04-03T13:51:18;19.20;30.30
4411;DHT22;2218;51.408;7.208;2023-04-03T13:53:50;19.10;30.00
4411;DHT22;2218;51.408;7.208;2023-04-03T13:56:30;19.10;29.80
4411;DHT22;2218;51.408;7.208;2023-04-03T13:59:21;19.20;30.00
4411;DHT22;2218;51.408;7.208;2023-04-03T14:01:53;19.20;29.80
4411;DHT22;2218;51.408;7.208;2023-04-03T14:04:23;19.10;29.90
4411;DHT22;2218;51.408;7.208;2023-04-03T14:06:54;19.10;29.80
4411;DHT22;2218;51.408;7.208;2023-04-03T14:09:22;19.20;29.90
4411;DHT22;2218;51.408;7.208;2023-04-03T14:11:54;19.10;29.90
4411;DHT22;2218;51.408;7.208;2023-04-03T14:14:27;19.20;29.70
4411;DHT22;2218;51.408;7.208;2023-04-03T14:16:59;19.10;30.00
4411;DHT22;2218;51.408;7.208;2023-04-03T14:19:29;19.20;30.00
4411;DHT22;2218;51.408;7.208;2023-04-03T14:22:00;19.20;30.20
4411;DHT22;2218;51.408;7.208;2023-04-03T14:24:33;19.20;30.20
4411;DHT22;2218;51.408;7.208;2023-04-03T14:27:00;19.20;30.20
4411;DHT22;2218;51.408;7.208;2023-04-03T14:29:27;19.10;30.20
4411;DHT22;2218;51.408;7.208;2023-04-03T14:31:53;19.10;29.90
4411;DHT22;2218;51.408;7.208;2023-04-03T14:34:20;19.10;30.00
4411;DHT22;2218;51.408;7.208;2023-04-03T14:36:47;19.20;29.90
4411;DHT22;2218;51.408;7.208;2023-04-03T14:39:18;19.20;30.00
4411;DHT22;2218;51.408;7.208;2023-04-03T14:41:45;19.20;29.90
4411;DHT22;2218;51.408;7.208;2023-04-03T14:44:12;19.20;29.90
4411;DHT22;2218;51.408;7.208;2023-04-03T14:46:42;19.20;29.80
4411;DHT22;2218;51.408;7.208;2023-04-03T14:49:14;19.20;30.10
4411;DHT22;2218;51.408;7.208;2023-04-03T14:51:44;19.20;30.10
4411;DHT22;2218;51.408;7.208;2023-04-03T14:54:13;19.20;29.90
4411;DHT22;2218;51.408;7.208;2023-04-03T14:56:44;19.20;30.00
4411;DHT22;2218;51.408;7.208;2023-04-03T14:59:13;19.20;30.10
4411;DHT22;2218;51.408;7.208;2023-04-03T15:01:43;19.20;30.00
4411;DHT22;2218;51.408;7.208;2023-04-03T15:04:12;19.20;29.90
4411;DHT22;2218;51.408;7.208;2023-04-03T15:06:40;19.20;30.00
4411;DHT22;2218;51.408;7.208;2023-04-03T15:09:18;19.20;30.00
4411;DHT22;2218;51.408;7.208;2023-04-03T15:11:48;19.20;30.20
4411;DHT22;2218;51.408;7.208;2023-04-03T15:14:15;19.20;30.00
4411;DHT22;2218;51.408;7.208;2023-04-03T15:16:42;19.20;30.00
4411;DHT22;2218;51.408;7.208;2023-04-03T15:19:10;19.20;30.10
4411;DHT22;2218;51.408;7.208;2023-04-03T15:21:37;19.20;30.20
4411;DHT22;2218;51.408;7.208;2023-04-03T15:24:05;19.20;30.10
4411;DHT22;2218;51.408;7.208;2023-04-03T15:26:33;19.20;30.20
4411;DHT22;2218;51.408;7.208;2023-04-03T15:29:00;19.20;30.10
4411;DHT22;2218;51.408;7.208;2023-04-03T15:31:27;19.20;30.20
4411;DHT22;2218;51.408;7.208;2023-04-03T15:33:54;19.20;30.20
4411;DHT22;2218;51.408;7.208;2023-04-03T15:36:21;19.20;30.00
4411;DHT22;2218;51.408;7.208;2023-04-03T15:38:48;19.20;29.90
4411;DHT22;2218;51.408;7.208;2023-04-03T15:41:16;19.20;30.20
4411;DHT22;2218;51.408;7.208;2023-04-03T15:43:44;19.20;30.20
4411;DHT22;2218;51.408;7.208;2023-04-03T15:46:12;19.20;30.20
4411;DHT22;2218;51.408;7.208;2023-04-03T15:48:40;19.20;30.10
4411;DHT22;2218;51.408;7.208;2023-04-03T15:51:07;19.20;30.00
4411;DHT22;2218;51.408;7.208;2023-04-03T15:53:33;19.20;30.10
4411;DHT22;2218;51.408;7.208;2023-04-03T15:56:00;19.20;30.00
4411;DHT22;2218;51.408;7.208;2023-04-03T15:58:28;19.20;30.00
4411;DHT22;2218;51.408;7.208;2023-04-03T16:00:56;19.20;30.00
4411;DHT22;2218;51.408;7.208;2023-04-03T16:03:23;19.20;29.90
4411;DHT22;2218;51.408;7.208;2023-04-03T16:05:51;19.20;30.00
4411;DHT22;2218;51.408;7.208;2023-04-03T16:08:18;19.20;29.70
4411;DHT22;2218;51.408;7.208;2023-04-03T16:10:45;19.20;29.90
4411;DHT22;2218;51.408;7.208;2023-04-03T16:13:12;19.20;29.90
4411;DHT22;2218;51.408;7.208;2023-04-03T16:15:40;19.20;29.60
4411;DHT22;2218;51.408;7.208;2023-04-03T16:18:09;19.20;29.40
4411;DHT22;2218;51.408;7.208;2023-04-03T16:20:37;19.20;29.20
4411;DHT22;2218;51.408;7.208;2023-04-03T16:23:04;19.20;29.60
4411;DHT22;2218;51.408;7.208;2023-04-03T16:25:31;19.20;29.30
4411;DHT22;2218;51.408;7.208;2023-04-03T16:27:58;19.20;29.20
4411;DHT22;2218;51.408;7.208;2023-04-03T16:30:25;19.20;29.20
4411;DHT22;2218;51.408;7.208;2023-04-03T16:32:52;19.20;29.10
4411;DHT22;2218;51.408;7.208;2023-04-03T16:35:22;19.20;29.10
4411;DHT22;2218;51.408;7.208;2023-04-03T16:37:49;19.20;29.50
4411;DHT22;2218;51.408;7.208;2023-04-03T16:40:17;19.20;29.00
4411;DHT22;2218;51.408;7.208;2023-04-03T16:42:44;19.20;29.10